createdAt,value
2023-04-27T00:01:01.507Z,100710.66
2023-04-27T00:04:07.626Z,100710.47
2023-04-27T00:07:13.854Z,100708.03
2023-04-27T00:10:18.963Z,100715.75
2023-04-27T00:13:25.557Z,100713.97
2023-04-27T00:16:30.824Z,100714.78
2023-04-27T00:19:35.897Z,100724.25
2023-04-27T00:22:41.084Z,100725.78
2023-04-27T00:25:46.140Z,100726.78
2023-04-27T00:28:52.726Z,100733.47
2023-04-27T00:31:57.996Z,100720.06
2023-04-27T00:35:03.087Z,100726.75
2023-04-27T00:38:08.221Z,100727.66
2023-04-27T00:41:13.518Z,100727.66
2023-04-27T00:44:26.311Z,100723.47
2023-04-27T00:47:32.184Z,100725.06
2023-04-27T00:50:38.862Z,100721.75
2023-04-27T00:53:44.540Z,100726.91
2023-04-27T00:56:51.157Z,100723.44
2023-04-27T00:59:57.770Z,100730.19
2023-04-27T01:03:03.109Z,100728.53
2023-04-27T01:06:08.831Z,100723.44
2023-04-27T01:09:14.248Z,100720.06
2023-04-27T01:12:19.630Z,100718.47
2023-04-27T01:15:26.453Z,100724.28
2023-04-27T01:18:31.970Z,100719.31
2023-04-27T01:21:37.160Z,100732.88
2023-04-27T01:24:43.757Z,100733.72
2023-04-27T01:27:48.775Z,100742.09
2023-04-27T01:30:53.958Z,100736.16
2023-04-27T01:33:59.518Z,100739.56
2023-04-27T01:37:04.625Z,100749.00
2023-04-27T01:40:12.405Z,100744.69
2023-04-27T01:43:19.165Z,100737.94
2023-04-27T01:46:24.482Z,100739.63
2023-04-27T01:49:29.625Z,100743.06
2023-04-27T01:52:34.790Z,100747.22
2023-04-27T01:55:42.251Z,100747.19
2023-04-27T01:58:47.416Z,100743.00
2023-04-27T02:01:52.689Z,100743.91
2023-04-27T02:04:57.874Z,100755.81
2023-04-27T02:08:04.494Z,100742.28
2023-04-27T02:11:11.345Z,100749.81
2023-04-27T02:14:16.435Z,100747.31
2023-04-27T02:17:21.812Z,100738.06
2023-04-27T02:20:27.037Z,100749.03
2023-04-27T02:23:32.060Z,100744.78
2023-04-27T02:26:38.577Z,100744.81
2023-04-27T02:29:44.213Z,100745.59
2023-04-27T02:32:49.933Z,100749.00
2023-04-27T02:35:55.161Z,100747.34
2023-04-27T02:39:00.292Z,100755.75
2023-04-27T02:42:06.977Z,100757.44
2023-04-27T02:45:14.176Z,100761.69
2023-04-27T02:48:19.411Z,100763.34
2023-04-27T02:51:24.506Z,100760.84
2023-04-27T02:54:29.654Z,100758.31
2023-04-27T02:57:36.732Z,100760.84
2023-04-27T03:00:42.191Z,100768.44
2023-04-27T03:03:48.839Z,100777.69
2023-04-27T03:06:54.019Z,100765.09
2023-04-27T03:09:59.297Z,100772.69
2023-04-27T03:13:06.220Z,100767.63
2023-04-27T03:16:13.746Z,100780.28
2023-04-27T03:19:18.867Z,100772.69
2023-04-27T03:22:24.182Z,100776.88
2023-04-27T03:25:31.403Z,100779.38
2023-04-27T03:28:37.917Z,100780.22
2023-04-27T03:31:43.619Z,100772.66
2023-04-27T03:34:48.860Z,100776.00
2023-04-27T03:37:54.017Z,100782.75
2023-04-27T03:40:59.674Z,100782.75
2023-04-27T03:44:06.263Z,100781.91
2023-04-27T03:47:12.662Z,100783.59
2023-04-27T03:50:18.936Z,100791.19
2023-04-27T03:53:24.186Z,100792.03
2023-04-27T03:56:30.046Z,100793.72
2023-04-27T03:59:36.842Z,100797.88
2023-04-27T04:02:42.679Z,100802.09
2023-04-27T04:05:48.307Z,100803.78
2023-04-27T04:08:53.454Z,100792.84
2023-04-27T04:11:59.431Z,100804.63
2023-04-27T04:15:06.584Z,100802.91
2023-04-27T04:18:13.248Z,100806.28
2023-04-27T04:21:18.543Z,100807.91
2023-04-27T04:24:23.724Z,100807.97
2023-04-27T04:27:28.833Z,100814.66
2023-04-27T04:30:35.472Z,100811.28
2023-04-27T04:33:40.664Z,100818.88
2023-04-27T04:36:46.026Z,100812.13
2023-04-27T04:39:51.156Z,100804.47
2023-04-27T04:42:56.433Z,100812.91
2023-04-27T04:46:04.307Z,100806.94
2023-04-27T04:49:09.505Z,100815.38
2023-04-27T04:52:15.342Z,100806.94
2023-04-27T04:55:20.657Z,100811.94
2023-04-27T04:58:25.890Z,100814.53
2023-04-27T05:01:32.619Z,100834.72
2023-04-27T05:04:38.223Z,100828.72
2023-04-27T05:07:43.477Z,100815.22
2023-04-27T05:10:51.831Z,100823.63
2023-04-27T05:13:57.011Z,100816.06
2023-04-27T05:17:03.699Z,100827.78
2023-04-27T05:20:10.100Z,100818.50
2023-04-27T05:23:15.270Z,100823.53
2023-04-27T05:26:21.257Z,100818.50
2023-04-27T05:29:27.376Z,100829.47
2023-04-27T05:32:36.944Z,100823.44
2023-04-27T05:35:42.112Z,100808.16
2023-04-27T05:38:47.365Z,100813.28
2023-04-27T05:41:54.111Z,100826.69
2023-04-27T05:44:59.244Z,100823.25
2023-04-27T05:48:05.867Z,100827.47
2023-04-27T05:51:11.695Z,100824.84
2023-04-27T05:54:16.874Z,100823.09
2023-04-27T05:57:22.019Z,100815.38
2023-04-27T06:00:27.163Z,100820.38
2023-04-27T06:03:34.050Z,100827.97
2023-04-27T06:06:39.790Z,100820.28
2023-04-27T06:09:44.943Z,100822.72
2023-04-27T06:12:50.130Z,100823.44
2023-04-27T06:15:55.401Z,100815.69
2023-04-27T06:19:01.917Z,100820.56
2023-04-27T06:22:07.167Z,100818.63
2023-04-27T06:25:12.921Z,100820.91
2023-04-27T06:28:18.455Z,100821.56
2023-04-27T06:31:24.008Z,100822.38
2023-04-27T06:34:30.759Z,100831.75
2023-04-27T06:37:36.083Z,100827.06
2023-04-27T06:40:41.684Z,100831.44
2023-04-27T06:43:46.990Z,100821.47
2023-04-27T06:46:52.456Z,100834.84
2023-04-27T06:49:59.065Z,100829.75
2023-04-27T06:53:04.469Z,100832.00
2023-04-27T06:56:13.099Z,100836.28
2023-04-27T06:59:18.366Z,100833.59
2023-04-27T07:02:25.450Z,100835.91
2023-04-27T07:05:32.665Z,100830.44
2023-04-27T07:08:38.259Z,100827.84
2023-04-27T07:11:43.775Z,100827.72
2023-04-27T07:14:50.873Z,100833.47
2023-04-27T07:17:56.447Z,100833.53
2023-04-27T07:21:03.177Z,100832.69
2023-04-27T07:24:08.798Z,100830.97
2023-04-27T07:27:15.237Z,100837.72
2023-04-27T07:30:20.569Z,100821.94
2023-04-27T07:33:27.994Z,100829.97
2023-04-27T07:36:34.561Z,100825.91
2023-04-27T07:39:39.595Z,100834.16
2023-04-27T07:42:45.004Z,100831.53
2023-04-27T07:45:50.502Z,100839.16
2023-04-27T07:48:59.326Z,100836.41
2023-04-27T07:52:06.750Z,100838.41
2023-04-27T07:55:13.361Z,100839.38
2023-04-27T07:58:19.994Z,100842.56
2023-04-27T08:01:25.289Z,100847.75
2023-04-27T08:04:30.910Z,100850.22
2023-04-27T08:07:44.138Z,100853.38
2023-04-27T08:10:50.045Z,100842.47
2023-04-27T08:13:55.158Z,100854.22
2023-04-27T08:17:00.372Z,100860.91
2023-04-27T08:20:07.958Z,100863.72
2023-04-27T08:23:14.357Z,100859.34
2023-04-27T08:26:19.531Z,100861.22
2023-04-27T08:29:28.631Z,100866.09
2023-04-27T08:32:34.484Z,100861.22
2023-04-27T08:35:39.721Z,100875.06
2023-04-27T08:38:46.858Z,100858.78
2023-04-27T08:41:52.030Z,100864.97
2023-04-27T08:44:57.245Z,100865.94
2023-04-27T08:48:02.582Z,100856.41
2023-04-27T08:51:10.400Z,100866.44
2023-04-27T08:54:19.658Z,100856.31
2023-04-27T08:57:24.818Z,100865.41
2023-04-27T09:00:38.782Z,100871.16
2023-04-27T09:03:46.832Z,100877.47
2023-04-27T09:06:52.068Z,100875.66
2023-04-27T09:10:06.094Z,100882.41
2023-04-27T09:13:12.044Z,100884.91
2023-04-27T09:16:17.629Z,100894.16
2023-04-27T09:19:26.378Z,100891.63
2023-04-27T09:22:31.593Z,100896.34
2023-04-27T09:25:38.036Z,100892.00
2023-04-27T09:28:50.367Z,100885.81
2023-04-27T09:31:55.842Z,100895.97
2023-04-27T09:35:01.227Z,100895.50
2023-04-27T09:38:06.651Z,100906.47
2023-04-27T09:41:15.476Z,100891.28
2023-04-27T09:44:21.039Z,100892.19
2023-04-27T09:47:28.745Z,100896.66
2023-04-27T09:50:38.241Z,100899.03
2023-04-27T09:53:48.162Z,100890.47
2023-04-27T09:57:02.985Z,100891.81
2023-04-27T10:00:21.206Z,100889.06
2023-04-27T10:03:44.305Z,100878.75
2023-04-27T10:07:01.483Z,100882.47
2023-04-27T10:10:07.510Z,100890.78
2023-04-27T10:13:23.926Z,100882.88
2023-04-27T10:16:29.379Z,100891.72
2023-04-27T10:19:35.011Z,100894.34
2023-04-27T10:22:41.634Z,100904.59
2023-04-27T10:25:48.842Z,100913.78
2023-04-27T10:29:07.591Z,100908.13
2023-04-27T10:32:14.331Z,100924.03
2023-04-27T10:35:20.296Z,100921.94
2023-04-27T10:38:30.540Z,100922.13
2023-04-27T10:41:38.698Z,100919.41
2023-04-27T10:45:02.132Z,100934.50
2023-04-27T10:48:08.395Z,100928.00
2023-04-27T10:51:17.549Z,100937.16
2023-04-27T10:54:22.813Z,100926.16
2023-04-27T10:57:29.586Z,100944.78
2023-04-27T11:00:44.984Z,100950.59
2023-04-27T11:03:57.914Z,100973.59
2023-04-27T11:07:04.727Z,100972.84
2023-04-27T11:10:11.232Z,100980.00
2023-04-27T11:13:17.587Z,100971.81
2023-04-27T11:16:24.448Z,100975.47
2023-04-27T11:19:31.293Z,100977.28
2023-04-27T11:22:37.178Z,100975.88
2023-04-27T11:25:42.308Z,100981.81
2023-04-27T11:28:58.901Z,100979.38
2023-04-27T11:32:05.805Z,100991.31
2023-04-27T11:35:11.829Z,101007.88
2023-04-27T11:38:19.036Z,101001.75
2023-04-27T11:41:24.486Z,100993.88
2023-04-27T11:44:30.005Z,101018.56
2023-04-27T11:47:36.832Z,101023.38
2023-04-27T11:50:42.830Z,101036.88
2023-04-27T11:53:51.321Z,101035.19
2023-04-27T11:57:06.598Z,101018.25
2023-04-27T12:00:15.474Z,101003.47
2023-04-27T12:03:22.133Z,101004.56
2023-04-27T12:06:33.221Z,101002.31
2023-04-27T12:09:38.950Z,101026.97
2023-04-27T12:12:44.658Z,101033.38
2023-04-27T12:15:49.763Z,101053.22
2023-04-27T12:18:56.598Z,101046.09
2023-04-27T12:22:01.828Z,101049.47
2023-04-27T12:25:07.919Z,101048.63
2023-04-27T12:28:19.295Z,101040.34
2023-04-27T12:31:27.700Z,101026.63
2023-04-27T12:34:34.847Z,101036.03
2023-04-27T12:37:40.188Z,101035.22
2023-04-27T12:40:45.525Z,101041.91
2023-04-27T12:43:50.850Z,101045.06
2023-04-27T12:46:57.081Z,101047.03
2023-04-27T12:50:05.816Z,101062.81
2023-04-27T12:53:11.097Z,101047.97
2023-04-27T12:56:16.486Z,101046.22
2023-04-27T12:59:21.751Z,101049.22
2023-04-27T13:02:28.887Z,101064.13
2023-04-27T13:05:35.986Z,101062.69
2023-04-27T13:08:42.236Z,101062.94
2023-04-27T13:11:47.317Z,101079.41
2023-04-27T13:14:52.506Z,101077.75
2023-04-27T13:17:59.322Z,101079.19
2023-04-27T13:21:06.812Z,101087.19
2023-04-27T13:24:14.072Z,101094.34
2023-04-27T13:27:20.461Z,101091.50
2023-04-27T13:30:25.746Z,101097.13
2023-04-27T13:33:31.039Z,101086.53
2023-04-27T13:36:37.496Z,101094.53
2023-04-27T13:39:42.580Z,101097.34
2023-04-27T13:42:47.514Z,101087.06
2023-04-27T13:45:54.626Z,101080.53
2023-04-27T13:48:59.665Z,101083.84
2023-04-27T13:52:06.316Z,101084.22
2023-04-27T13:55:13.729Z,101083.19
2023-04-27T13:58:19.293Z,101077.59
2023-04-27T14:01:25.114Z,101085.28
2023-04-27T14:04:30.342Z,101076.25
2023-04-27T14:07:38.750Z,101081.09
2023-04-27T14:10:44.063Z,101084.88
2023-04-27T14:13:50.298Z,101083.50
2023-04-27T14:16:56.948Z,101091.94
2023-04-27T14:20:02.311Z,101088.38
2023-04-27T14:23:09.143Z,101099.34
2023-04-27T14:26:14.373Z,101090.72
2023-04-27T14:29:19.733Z,101094.72
2023-04-27T14:32:25.134Z,101095.50
2023-04-27T14:35:30.466Z,101098.34
2023-04-27T14:38:36.958Z,101095.28
2023-04-27T14:41:42.080Z,101088.41
2023-04-27T14:44:49.637Z,101094.19
2023-04-27T14:47:55.129Z,101089.94
2023-04-27T14:51:00.322Z,101089.97
2023-04-27T14:54:08.049Z,101084.03
2023-04-27T14:57:13.119Z,101086.47
2023-04-27T15:00:19.050Z,101082.63
2023-04-27T15:03:24.370Z,101092.00
2023-04-27T15:06:30.461Z,101084.16
2023-04-27T15:09:37.697Z,101085.75
2023-04-27T15:12:42.922Z,101080.50
2023-04-27T15:15:49.487Z,101087.94
2023-04-27T15:18:54.740Z,101097.50
2023-04-27T15:21:59.865Z,101091.41
2023-04-27T15:25:07.188Z,101096.94
2023-04-27T15:28:14.389Z,101085.59
2023-04-27T15:31:19.586Z,101095.34
2023-04-27T15:34:24.735Z,101092.53
2023-04-27T15:37:30.653Z,101091.88
2023-04-27T15:40:37.311Z,101091.34
2023-04-27T15:43:42.421Z,101083.50
2023-04-27T15:46:47.573Z,101084.78
2023-04-27T15:49:57.611Z,101087.16
2023-04-27T15:53:03.265Z,101093.94
2023-04-27T15:56:09.898Z,101095.97
2023-04-27T15:59:15.185Z,101095.34
2023-04-27T16:02:20.945Z,101099.75
2023-04-27T16:05:26.210Z,101112.41
2023-04-27T16:08:32.542Z,101113.25
2023-04-27T16:11:39.203Z,101129.47
2023-04-27T16:14:44.574Z,101149.31
2023-04-27T16:17:49.775Z,101156.84
2023-04-27T16:20:55.176Z,101158.59
2023-04-27T16:24:00.211Z,101151.75
2023-04-27T16:27:07.395Z,101162.88
2023-04-27T16:30:14.785Z,101160.34
2023-04-27T16:33:21.396Z,101162.88
2023-04-27T16:36:28.268Z,101155.66
2023-04-27T16:39:33.447Z,101151.50
2023-04-27T16:42:39.907Z,101158.78
2023-04-27T16:45:45.119Z,101153.69
2023-04-27T16:48:50.239Z,101140.81
2023-04-27T16:51:56.357Z,101132.50
2023-04-27T16:55:01.484Z,101136.06
2023-04-27T16:58:08.307Z,101149.50
2023-04-27T17:01:13.448Z,101144.56
2023-04-27T17:04:18.859Z,101152.00
2023-04-27T17:07:28.700Z,101143.69
2023-04-27T17:10:38.432Z,101146.09
2023-04-27T17:13:45.071Z,101148.00
2023-04-27T17:16:50.227Z,101155.78
2023-04-27T17:19:55.428Z,101153.22
2023-04-27T17:23:00.678Z,101147.31
2023-04-27T17:26:07.916Z,101155.69
2023-04-27T17:29:16.285Z,101159.97
2023-04-27T17:32:21.491Z,101145.63
2023-04-27T17:35:26.990Z,101163.47
2023-04-27T17:38:32.143Z,101158.22
2023-04-27T17:41:37.456Z,101170.03
2023-04-27T17:44:45.304Z,101176.75
2023-04-27T17:47:50.895Z,101174.16
2023-04-27T17:50:56.200Z,101180.31
2023-04-27T17:54:01.580Z,101185.34
2023-04-27T17:57:06.661Z,101178.53
2023-04-27T18:00:18.188Z,101184.50
2023-04-27T18:03:24.631Z,101184.69
2023-04-27T18:06:30.143Z,101179.66
2023-04-27T18:09:35.467Z,101190.81
2023-04-27T18:12:41.060Z,101199.25
2023-04-27T18:15:47.610Z,101182.31
2023-04-27T18:18:53.194Z,101186.50
2023-04-27T18:21:58.273Z,101190.84
2023-04-27T18:25:03.609Z,101195.06
2023-04-27T18:28:08.928Z,101205.31
2023-04-27T18:31:20.277Z,101207.03
2023-04-27T18:34:25.911Z,101200.16
2023-04-27T18:37:31.593Z,101205.25
2023-04-27T18:40:37.303Z,101205.25
2023-04-27T18:43:42.546Z,101207.75
2023-04-27T18:46:49.054Z,101205.34
2023-04-27T18:49:54.341Z,101213.81
2023-04-27T18:53:01.774Z,101208.72
2023-04-27T18:56:09.507Z,101216.28
2023-04-27T18:59:17.675Z,101214.50
2023-04-27T19:02:25.985Z,101217.13
2023-04-27T19:05:33.782Z,101217.09
2023-04-27T19:08:39.343Z,101217.91
2023-04-27T19:11:46.638Z,101215.50
2023-04-27T19:14:55.067Z,101212.03
2023-04-27T19:18:07.048Z,101210.34
2023-04-27T19:21:18.142Z,101212.94
2023-04-27T19:24:24.913Z,101215.50
2023-04-27T19:27:30.514Z,101219.88
2023-04-27T19:30:35.877Z,101213.88
2023-04-27T19:36:51.178Z,101226.63
2023-04-27T19:39:56.499Z,101219.88
2023-04-27T19:43:01.740Z,101216.38
2023-04-27T19:46:07.169Z,101228.34
2023-04-27T19:49:25.560Z,101228.41
2023-04-27T19:52:32.310Z,101224.19
2023-04-27T19:55:38.213Z,101231.81
2023-04-27T19:58:43.909Z,101230.97
2023-04-27T20:01:49.160Z,101223.34
2023-04-27T20:04:56.384Z,101225.06
2023-04-27T20:08:02.085Z,101230.94
2023-04-27T20:11:07.506Z,101238.66
2023-04-27T20:14:14.153Z,101231.03
2023-04-27T20:17:20.380Z,101227.66
2023-04-27T20:20:26.993Z,101229.38
2023-04-27T20:23:32.285Z,101233.69
2023-04-27T20:26:37.454Z,101232.75
2023-04-27T20:29:44.926Z,101229.44
2023-04-27T20:32:50.076Z,101233.72
2023-04-27T20:36:03.550Z,101224.41
2023-04-27T20:39:15.734Z,101230.28
2023-04-27T20:42:21.141Z,101224.34
2023-04-27T20:45:26.583Z,101233.72
2023-04-27T20:48:31.992Z,101230.31
2023-04-27T20:51:38.527Z,101243.84
2023-04-27T20:54:43.765Z,101239.63
2023-04-27T20:57:48.894Z,101242.19
2023-04-27T21:00:54.056Z,101236.28
2023-04-27T21:03:59.237Z,101243.00
2023-04-27T21:07:06.060Z,101248.97
2023-04-27T21:10:12.889Z,101239.69
2023-04-27T21:13:18.007Z,101238.00
2023-04-27T21:16:23.237Z,101248.97
2023-04-27T21:19:28.420Z,101246.47
2023-04-27T21:22:35.225Z,101247.34
2023-04-27T21:25:40.594Z,101249.03
2023-04-27T21:28:46.261Z,101234.56
2023-04-27T21:31:51.335Z,101240.56
2023-04-27T21:34:56.782Z,101238.00
2023-04-27T21:38:03.350Z,101242.22
2023-04-27T21:41:08.766Z,101238.88
2023-04-27T21:44:14.525Z,101245.63
2023-04-27T21:47:19.880Z,101243.94
2023-04-27T21:50:25.186Z,101245.63
2023-04-27T21:53:31.814Z,101254.09
2023-04-27T21:56:37.694Z,101247.34
2023-04-27T21:59:43.044Z,101255.78
2023-04-27T22:02:48.556Z,101260.84
2023-04-27T22:05:54.107Z,101243.94
2023-04-27T22:09:00.905Z,101247.34
2023-04-27T22:12:07.123Z,101251.59
2023-04-27T22:15:13.118Z,101259.19
2023-04-27T22:18:18.718Z,101257.50
2023-04-27T22:21:24.053Z,101260.84
2023-04-27T22:24:30.667Z,101258.34
2023-04-27T22:27:44.516Z,101257.50
2023-04-27T22:30:50.573Z,101255.81
2023-04-27T22:33:55.979Z,101250.72
2023-04-27T22:37:02.150Z,101254.09
2023-04-27T22:40:10.986Z,101260.88
2023-04-27T22:43:16.643Z,101265.09
2023-04-27T22:46:23.252Z,101258.31
2023-04-27T22:49:28.953Z,101272.69
2023-04-27T22:52:34.262Z,101261.69
2023-04-27T22:55:40.774Z,101263.38
2023-04-27T22:58:46.678Z,101269.31
2023-04-27T23:01:52.143Z,101269.31
2023-04-27T23:04:58.718Z,101273.53
2023-04-27T23:08:05.663Z,101261.72
2023-04-27T23:11:15.557Z,101270.13
2023-04-27T23:14:21.119Z,101260.84
2023-04-27T23:17:30.586Z,101268.47
2023-04-27T23:20:36.085Z,101266.78
2023-04-27T23:23:41.276Z,101276.06
2023-04-27T23:26:47.746Z,101268.44
2023-04-27T23:29:53.128Z,101263.38
2023-04-27T23:32:58.610Z,101263.38
2023-04-27T23:36:04.600Z,101262.56
2023-04-27T23:39:10.073Z,101265.91
2023-04-27T23:42:16.694Z,101271.00
2023-04-27T23:45:22.062Z,101276.06
2023-04-27T23:48:27.397Z,101268.44
2023-04-27T23:51:32.810Z,101265.94
2023-04-27T23:54:37.970Z,101269.31
2023-04-27T23:57:44.996Z,101279.41
